Disclaimer

Please do not use the information listed here in-flight or in-navigation, as they are not provided to us by the airports but are provided by volunteers, so they might be outdated.

Search


Regions


Airport information page

Radio informations:
CRASH SVC - 133.5 MHz
Common traffic adv. frequency (CTAF) - 122.8 MHz

Airport informations:
Latitude: 31° 24' 42.99" N
Longitude: 037° 16' 46.09" E
Elevation: 1672 feet - 510 meters
Operating hours: Remarks
Operating agency: Civil government, landing fees and diplomatic clearance may be required
Timezone: UTC+3
Fuel: Unknown fuel type or whether there is any fuel.

Runway information:
10/28 - 10007 x 147 feet< - >3050 x 45 meters

Recent METARs:
OEGT 190200Z 00000KT CAVOK 12/08 Q1018 NOSIG
OEGT 190200Z 00000KT CAVOK 12/08 Q1018 NOSIG
OEGT 190300Z 00000KT CAVOK 12/08 Q1018 NOSIG

Airport on the map: